Rusape, Zimbabwe
Current Conditions -  °F | °C
As of 3:00 PM on Thursday 23 Oct 2014 (Local Time) from FVHA Reporting Station
Clear Clear  
Wind Chill: 84°   Ceiling: Unl
Heat Index: 84°   Visibility: 6mi
Dew Point: 45°   Wind: 6mph
Humidity: 25%   Direction: 260°W
Pressure: 30.12"   Gusts: NA
Location:  18.53°S, 32.12°E
Report Text: FVHA 231300Z 26005KT 190V350 CAVOK 29/07 Q1020 NOSIG
Loading
Personal Weather Stations






























Interactive Weather Map
Tropical Storm Tracking
New forecast layout! Learn more

10-Day Weather Forecast

Advertisements
Track Severe Weather on mobile